*** The Vicarage Weather Feed ***

Nearby METAR Reports


 

CYOO - Oshawa, Municipal Airport, Ontario, Canada
Distance from station: NW 3.2km
Updated: 19/03/2019 22:00
Mist, Clear
Mist, Clear
 Wind from E
Wind: E 6 km/h
Temperature: -2°C
Dew Point: -2°C
Humidity: 100%
Barometer: 1026.8 hPa
Summary: Mist
Clouds: Clear
Visibility: 6 km
2019/03/20 02:00 CYOO 200200Z AUTO 09003KT 4SM BR CLR M02/M02 A3032 RMK SLP275
CYKZ - Toronto, Buttonville, Municipal Airport, Ontario, Canada
Distance from station: W 39.75km
Updated: 03/01/2019 04:00
NOT Current
Partly cloudy
Partly cloudy
 Wind from WSW
Wind: WSW 7 km/h
Temperature: -3°C
Wind Chill: -6°C
Dew Point: -5°C
Humidity: 86%
Barometer: 1010.8 hPa
Clouds: Partly cloudy
Visibility: 24 km
Cloud details: Partly cloudy 1219 m
2019/01/03 09:00 CYKZ 030900Z 25004KT 15SM SCT040 M03/M05 A2985 RMK SC3 LAST STFD OBS FAREWELL SLP118
 
CXTO - Toronto City, Buttonville, Ontario, Canada
Distance from station: WSW 49km
Updated: 19/03/2019 22:00

 
Temperature: 3°C
Dew Point: -2°C
Humidity: 70%
2019/03/20 02:00 CXTO 200200Z AUTO 03/M02 RMK AO1 SOG 03 8003 SLP267 T00281024
CYTZ - Toronto City, Island Airport, Ontario, Canada
Distance from station: SW 51.7km
Updated: 19/03/2019 22:44
Mist, Clear
Mist, Clear
 Wind from SW
Wind: SW 9 km/h
Temperature: 1°C
Wind Chill: -2°C
Dew Point: 0°C
Humidity: 93%
Barometer: 1026.8 hPa
Summary: Mist
Clouds: Clear
Visibility: 10 km
2019/03/20 02:44 CYTZ 200244Z AUTO 23005KT 110V240 6SM BR CLR 01/M00 A3032 RMK SLP271
 
CYPQ - Toronto, Peterborough Airport, Ontario, Canada
Distance from station: NE 54km
Updated: 19/03/2019 22:42
Mist, Clear
Mist, Clear
 Wind from SSW
Wind: SSW 4 km/h
Temperature: -3°C
Dew Point: -3°C
Humidity: 100%
Barometer: 1026.4 hPa
Summary: Mist
Clouds: Clear
Visibility: 8 km
2019/03/20 02:42 CYPQ 200242Z AUTO 20002KT 5SM BR CLR M03/M03 A3031 RMK SLP275
CWNC - Cobourg, (mars), Ontario, Canada
Distance from station: E 57km
Updated: 19/03/2019 22:00

 Wind from NE
Wind: NE 2 km/h
Temperature: 0°C
Dew Point: -2°C
Humidity: 87%
2019/03/20 02:00 CWNC 200200Z AUTO 05001KT M00/M02 RMK AO1 SOG 02 0000 SLP273 T10031019
 
CYYZ - Toronto, Lester Pearson Airport, Ontario, Canada
Distance from station: W 65.5km
Updated: 19/03/2019 22:00
Clear
Clear
 Wind from S
Wind: S 7 km/h
Temperature: 1°C
Wind Chill: -2°C
Dew Point: -4°C
Humidity: 70%
Barometer: 1026.4 hPa
Clouds: Clear
Visibility: 24 km
2019/03/20 02:00 CYYZ 200200Z 17004KT 15SM SKC 01/M04 A3031 RMK SLP272
CWGL - Lagoon City, Ontario, Canada
Distance from station: NNW 74km
Updated: 19/03/2019 22:00

 Wind from SSE
Wind: SSE 11 km/h
Temperature: 0°C
Wind Chill: -4°C
Dew Point: -6°C
Humidity: 64%
2019/03/20 02:00 CWGL 200200Z AUTO 16006KT M00/M06 RMK AO1 SLP262 T10011055 58005
 
CWWZ - Port Weller Airport, Ontario, Canada
Distance from station: SSW 77km
Updated: 19/03/2019 22:00

 Wind from SSW
Wind: SSW 9 km/h
Temperature: 1°C
Wind Chill: -2°C
Dew Point: -4°C
Humidity: 70%
2019/03/20 02:00 CWWZ 200200Z AUTO 21005KT 01/M04 RMK AO1 SLP276 T00141038 57002
CYSN - St.Catharines Niagara Airport, Ontario, Canada
Distance from station: SSW 81km
Updated: 19/03/2019 21:00
NOT Current
Clear
Clear
 Wind from SSW
Wind: SSW 13 km/h
Temperature: 0°C
Wind Chill: -4°C
Dew Point: -5°C
Humidity: 69%
Barometer: 1027.1 hPa
Clouds: Clear
Visibility: 24 km
2019/03/20 01:00 CYSN 200100Z 21007KT 15SM SKC 00/M05 A3033 RMK LAST STFD OBS/NEXT 20 1100UTC SLP278
This data is offered only as a general guide to local weather conditions. It should not be relied upon in lieu of officially disseminated weather information for determining possible risk to persons or property. This site, including all information contained therein, is made available as is without warranties of any kind, either express or implied. The Vicarage Weather Feed© includes links to other sites for user convenience only. The content of any linked third-party site is not controlled by The Vicarage Weather Feed©. Access to any third-party website through The Vicarage Weather Feed©, regardless of whether or not the third-party site is a linked site, is entirely at the users own risk. Externally sourced content or material is excluded from The Vicarage Weather Feed© copyright and is the copyright and property of the respective provider. Skywarn® and the Skywarn® logo are registered trademarks of the National Oceanic and Atmospheric Administration, used with permission.